sensor_id;sensor_type;location;lat;lon;timestamp;P1;durP1;ratioP1;P2;durP2;ratioP2
52104;SDS011;38103;42.776;23.112;2022-11-15T00:01:45;111.05;;;44.88;;
52104;SDS011;38103;42.776;23.112;2022-11-15T00:04:10;106.78;;;44.28;;
52104;SDS011;38103;42.776;23.112;2022-11-15T00:06:36;116.72;;;45.15;;
52104;SDS011;38103;42.776;23.112;2022-11-15T00:09:01;111.05;;;45.25;;
52104;SDS011;38103;42.776;23.112;2022-11-15T00:11:27;122.95;;;45.75;;
52104;SDS011;38103;42.776;23.112;2022-11-15T00:13:56;127.03;;;47.05;;
52104;SDS011;38103;42.776;23.112;2022-11-15T00:16:22;130.13;;;46.60;;
52104;SDS011;38103;42.776;23.112;2022-11-15T00:18:49;117.28;;;44.25;;
52104;SDS011;38103;42.776;23.112;2022-11-15T00:21:15;121.50;;;46.63;;
52104;SDS011;38103;42.776;23.112;2022-11-15T00:23:41;124.15;;;47.90;;
52104;SDS011;38103;42.776;23.112;2022-11-15T00:26:06;125.47;;;48.33;;
52104;SDS011;38103;42.776;23.112;2022-11-15T00:28:35;131.57;;;49.28;;
52104;SDS011;38103;42.776;23.112;2022-11-15T00:31:01;122.47;;;48.65;;
52104;SDS011;38103;42.776;23.112;2022-11-15T00:33:28;130.48;;;45.40;;
52104;SDS011;38103;42.776;23.112;2022-11-15T00:35:53;118.05;;;44.65;;
52104;SDS011;38103;42.776;23.112;2022-11-15T00:38:18;123.80;;;46.00;;
52104;SDS011;38103;42.776;23.112;2022-11-15T00:40:44;112.38;;;45.08;;
52104;SDS011;38103;42.776;23.112;2022-11-15T00:43:09;106.63;;;42.55;;
52104;SDS011;38103;42.776;23.112;2022-11-15T00:45:34;98.38;;;41.75;;
52104;SDS011;38103;42.776;23.112;2022-11-15T00:48:00;97.10;;;39.95;;
52104;SDS011;38103;42.776;23.112;2022-11-15T00:50:25;97.93;;;40.15;;
52104;SDS011;38103;42.776;23.112;2022-11-15T00:52:51;98.93;;;40.85;;
52104;SDS011;38103;42.776;23.112;2022-11-15T00:55:16;99.20;;;41.85;;
52104;SDS011;38103;42.776;23.112;2022-11-15T00:57:43;96.05;;;40.35;;
52104;SDS011;38103;42.776;23.112;2022-11-15T01:00:09;96.28;;;41.42;;
52104;SDS011;38103;42.776;23.112;2022-11-15T01:02:35;98.35;;;40.53;;
52104;SDS011;38103;42.776;23.112;2022-11-15T01:05:01;91.75;;;39.97;;
52104;SDS011;38103;42.776;23.112;2022-11-15T01:07:26;93.18;;;40.25;;
52104;SDS011;38103;42.776;23.112;2022-11-15T01:09:51;94.43;;;39.38;;
52104;SDS011;38103;42.776;23.112;2022-11-15T01:12:17;96.50;;;40.55;;
52104;SDS011;38103;42.776;23.112;2022-11-15T01:14:42;100.40;;;40.90;;
52104;SDS011;38103;42.776;23.112;2022-11-15T01:17:07;99.60;;;42.05;;
52104;SDS011;38103;42.776;23.112;2022-11-15T01:19:33;105.05;;;41.63;;
52104;SDS011;38103;42.776;23.112;2022-11-15T01:21:58;100.15;;;43.10;;
52104;SDS011;38103;42.776;23.112;2022-11-15T01:24:24;101.50;;;41.28;;
52104;SDS011;38103;42.776;23.112;2022-11-15T01:26:49;115.45;;;43.28;;
52104;SDS011;38103;42.776;23.112;2022-11-15T01:29:14;103.18;;;41.25;;
52104;SDS011;38103;42.776;23.112;2022-11-15T01:31:40;114.55;;;43.72;;
52104;SDS011;38103;42.776;23.112;2022-11-15T01:34:05;126.88;;;45.95;;
52104;SDS011;38103;42.776;23.112;2022-11-15T01:36:30;135.15;;;45.28;;
52104;SDS011;38103;42.776;23.112;2022-11-15T01:38:56;120.78;;;41.15;;
52104;SDS011;38103;42.776;23.112;2022-11-15T01:41:26;101.25;;;38.63;;
52104;SDS011;38103;42.776;23.112;2022-11-15T01:43:57;101.60;;;38.50;;
52104;SDS011;38103;42.776;23.112;2022-11-15T01:46:44;90.43;;;37.28;;
52104;SDS011;38103;42.776;23.112;2022-11-15T01:49:16;100.80;;;38.67;;
52104;SDS011;38103;42.776;23.112;2022-11-15T01:51:44;111.53;;;39.88;;
52104;SDS011;38103;42.776;23.112;2022-11-15T01:54:11;111.50;;;41.83;;
52104;SDS011;38103;42.776;23.112;2022-11-15T01:56:42;120.00;;;40.90;;
52104;SDS011;38103;42.776;23.112;2022-11-15T02:02:00;102.68;;;39.10;;
52104;SDS011;38103;42.776;23.112;2022-11-15T02:04:27;104.20;;;38.08;;
52104;SDS011;38103;42.776;23.112;2022-11-15T02:06:55;108.63;;;40.00;;
52104;SDS011;38103;42.776;23.112;2022-11-15T02:09:20;127.78;;;41.83;;
52104;SDS011;38103;42.776;23.112;2022-11-15T02:11:46;126.38;;;42.40;;
52104;SDS011;38103;42.776;23.112;2022-11-15T02:14:13;128.63;;;43.28;;
52104;SDS011;38103;42.776;23.112;2022-11-15T02:16:48;128.23;;;43.65;;
52104;SDS011;38103;42.776;23.112;2022-11-15T02:25:21;123.43;;;40.35;;
52104;SDS011;38103;42.776;23.112;2022-11-15T02:31:13;134.18;;;44.03;;
52104;SDS011;38103;42.776;23.112;2022-11-15T02:36:30;121.55;;;41.00;;
52104;SDS011;38103;42.776;23.112;2022-11-15T02:39:04;124.50;;;39.78;;
52104;SDS011;38103;42.776;23.112;2022-11-15T02:41:52;105.50;;;37.90;;
52104;SDS011;38103;42.776;23.112;2022-11-15T02:47:17;93.82;;;35.92;;
52104;SDS011;38103;42.776;23.112;2022-11-15T02:49:45;103.70;;;37.88;;
52104;SDS011;38103;42.776;23.112;2022-11-15T02:52:14;115.10;;;39.53;;
52104;SDS011;38103;42.776;23.112;2022-11-15T02:55:02;104.75;;;37.22;;
52104;SDS011;38103;42.776;23.112;2022-11-15T03:00:03;134.07;;;41.20;;
52104;SDS011;38103;42.776;23.112;2022-11-15T03:02:42;137.98;;;46.00;;
52104;SDS011;38103;42.776;23.112;2022-11-15T03:08:26;129.77;;;42.70;;
52104;SDS011;38103;42.776;23.112;2022-11-15T03:16:04;133.15;;;46.35;;
52104;SDS011;38103;42.776;23.112;2022-11-15T03:18:43;128.63;;;45.17;;
52104;SDS011;38103;42.776;23.112;2022-11-15T03:21:15;119.25;;;41.47;;
52104;SDS011;38103;42.776;23.112;2022-11-15T03:23:43;138.07;;;48.70;;
52104;SDS011;38103;42.776;23.112;2022-11-15T03:26:12;158.13;;;57.85;;
52104;SDS011;38103;42.776;23.112;2022-11-15T03:28:42;135.85;;;51.80;;
52104;SDS011;38103;42.776;23.112;2022-11-15T03:31:15;120.30;;;45.60;;
52104;SDS011;38103;42.776;23.112;2022-11-15T03:34:03;114.18;;;46.20;;
52104;SDS011;38103;42.776;23.112;2022-11-15T03:36:32;121.72;;;47.72;;
52104;SDS011;38103;42.776;23.112;2022-11-15T03:39:00;96.00;;;40.42;;
52104;SDS011;38103;42.776;23.112;2022-11-15T03:41:31;105.80;;;39.25;;
52104;SDS011;38103;42.776;23.112;2022-11-15T03:44:06;218.40;;;39.60;;
52104;SDS011;38103;42.776;23.112;2022-11-15T03:46:46;158.80;;;42.08;;
52104;SDS011;38103;42.776;23.112;2022-11-15T03:49:24;199.25;;;35.25;;
52104;SDS011;38103;42.776;23.112;2022-11-15T03:51:56;295.02;;;41.20;;
52104;SDS011;38103;42.776;23.112;2022-11-15T03:54:22;297.83;;;39.03;;
52104;SDS011;38103;42.776;23.112;2022-11-15T03:56:48;296.10;;;38.35;;
52104;SDS011;38103;42.776;23.112;2022-11-15T03:59:13;371.42;;;46.55;;
52104;SDS011;38103;42.776;23.112;2022-11-15T04:01:38;457.92;;;61.50;;
52104;SDS011;38103;42.776;23.112;2022-11-15T04:04:04;400.88;;;56.17;;
52104;SDS011;38103;42.776;23.112;2022-11-15T04:06:29;326.40;;;52.20;;
52104;SDS011;38103;42.776;23.112;2022-11-15T04:08:54;280.13;;;40.08;;
52104;SDS011;38103;42.776;23.112;2022-11-15T04:11:20;381.25;;;42.00;;
52104;SDS011;38103;42.776;23.112;2022-11-15T04:13:45;251.05;;;42.65;;
52104;SDS011;38103;42.776;23.112;2022-11-15T04:16:11;342.60;;;40.72;;
52104;SDS011;38103;42.776;23.112;2022-11-15T04:18:36;223.15;;;41.13;;
52104;SDS011;38103;42.776;23.112;2022-11-15T04:21:02;156.90;;;41.50;;
52104;SDS011;38103;42.776;23.112;2022-11-15T04:23:46;117.22;;;40.03;;
52104;SDS011;38103;42.776;23.112;2022-11-15T04:26:32;124.68;;;43.42;;
52104;SDS011;38103;42.776;23.112;2022-11-15T04:28:57;135.25;;;42.65;;
52104;SDS011;38103;42.776;23.112;2022-11-15T04:31:41;106.10;;;41.30;;
52104;SDS011;38103;42.776;23.112;2022-11-15T04:34:07;137.65;;;45.45;;
52104;SDS011;38103;42.776;23.112;2022-11-15T04:36:32;131.98;;;43.25;;
52104;SDS011;38103;42.776;23.112;2022-11-15T04:39:16;126.20;;;43.72;;
52104;SDS011;38103;42.776;23.112;2022-11-15T04:41:41;124.78;;;43.55;;
52104;SDS011;38103;42.776;23.112;2022-11-15T04:44:07;118.95;;;40.17;;
52104;SDS011;38103;42.776;23.112;2022-11-15T04:46:32;125.10;;;40.28;;
52104;SDS011;38103;42.776;23.112;2022-11-15T04:48:58;117.90;;;42.58;;
52104;SDS011;38103;42.776;23.112;2022-11-15T04:51:23;135.93;;;40.35;;
52104;SDS011;38103;42.776;23.112;2022-11-15T04:53:48;181.23;;;40.45;;
52104;SDS011;38103;42.776;23.112;2022-11-15T04:56:14;401.02;;;45.17;;
52104;SDS011;38103;42.776;23.112;2022-11-15T04:58:39;336.02;;;44.33;;
52104;SDS011;38103;42.776;23.112;2022-11-15T05:01:08;140.32;;;42.28;;
52104;SDS011;38103;42.776;23.112;2022-11-15T05:03:38;273.25;;;52.30;;
52104;SDS011;38103;42.776;23.112;2022-11-15T05:08:47;190.05;;;43.10;;
52104;SDS011;38103;42.776;23.112;2022-11-15T05:11:13;260.52;;;42.72;;
52104;SDS011;38103;42.776;23.112;2022-11-15T05:13:38;198.57;;;39.90;;
52104;SDS011;38103;42.776;23.112;2022-11-15T05:16:04;315.33;;;36.85;;
52104;SDS011;38103;42.776;23.112;2022-11-15T05:18:29;353.63;;;34.88;;
52104;SDS011;38103;42.776;23.112;2022-11-15T05:20:54;319.67;;;31.50;;
52104;SDS011;38103;42.776;23.112;2022-11-15T05:23:20;407.50;;;36.35;;
52104;SDS011;38103;42.776;23.112;2022-11-15T05:25:45;402.42;;;35.55;;
52104;SDS011;38103;42.776;23.112;2022-11-15T05:28:11;396.48;;;36.58;;
52104;SDS011;38103;42.776;23.112;2022-11-15T05:30:36;375.30;;;36.38;;
52104;SDS011;38103;42.776;23.112;2022-11-15T05:33:01;409.88;;;38.20;;
52104;SDS011;38103;42.776;23.112;2022-11-15T05:35:31;329.08;;;35.00;;
52104;SDS011;38103;42.776;23.112;2022-11-15T05:38:02;416.73;;;40.25;;
52104;SDS011;38103;42.776;23.112;2022-11-15T05:40:28;489.80;;;42.60;;
52104;SDS011;38103;42.776;23.112;2022-11-15T05:42:55;408.50;;;44.40;;
52104;SDS011;38103;42.776;23.112;2022-11-15T05:45:21;383.75;;;42.70;;
52104;SDS011;38103;42.776;23.112;2022-11-15T05:47:46;391.77;;;44.88;;
52104;SDS011;38103;42.776;23.112;2022-11-15T05:50:14;394.40;;;39.88;;
52104;SDS011;38103;42.776;23.112;2022-11-15T05:52:43;511.70;;;49.72;;
52104;SDS011;38103;42.776;23.112;2022-11-15T05:55:10;394.42;;;41.80;;
52104;SDS011;38103;42.776;23.112;2022-11-15T05:57:36;525.90;;;45.15;;
52104;SDS011;38103;42.776;23.112;2022-11-15T06:00:02;574.78;;;49.67;;
52104;SDS011;38103;42.776;23.112;2022-11-15T06:02:29;351.40;;;47.22;;
52104;SDS011;38103;42.776;23.112;2022-11-15T06:04:55;522.10;;;67.88;;
52104;SDS011;38103;42.776;23.112;2022-11-15T06:07:20;284.52;;;36.13;;
52104;SDS011;38103;42.776;23.112;2022-11-15T06:09:45;478.30;;;46.42;;
52104;SDS011;38103;42.776;23.112;2022-11-15T06:12:11;373.55;;;36.45;;
52104;SDS011;38103;42.776;23.112;2022-11-15T06:14:36;529.60;;;54.20;;
52104;SDS011;38103;42.776;23.112;2022-11-15T06:17:01;517.28;;;50.78;;
52104;SDS011;38103;42.776;23.112;2022-11-15T06:19:27;452.90;;;47.40;;
52104;SDS011;38103;42.776;23.112;2022-11-15T06:21:57;375.33;;;46.55;;
52104;SDS011;38103;42.776;23.112;2022-11-15T06:24:23;177.27;;;30.02;;
52104;SDS011;38103;42.776;23.112;2022-11-15T06:26:48;409.45;;;43.25;;
52104;SDS011;38103;42.776;23.112;2022-11-15T06:40:53;219.50;;;28.33;;
52104;SDS011;38103;42.776;23.112;2022-11-15T06:43:19;277.65;;;26.95;;
52104;SDS011;38103;42.776;23.112;2022-11-15T06:45:44;178.95;;;27.27;;
52104;SDS011;38103;42.776;23.112;2022-11-15T06:48:09;240.80;;;26.60;;
52104;SDS011;38103;42.776;23.112;2022-11-15T06:50:35;208.63;;;23.33;;
52104;SDS011;38103;42.776;23.112;2022-11-15T06:53:01;359.85;;;27.60;;
52104;SDS011;38103;42.776;23.112;2022-11-15T06:55:28;297.80;;;27.15;;
52104;SDS011;38103;42.776;23.112;2022-11-15T06:57:53;257.30;;;27.80;;
52104;SDS011;38103;42.776;23.112;2022-11-15T07:00:20;295.73;;;29.42;;
52104;SDS011;38103;42.776;23.112;2022-11-15T07:02:46;390.88;;;36.30;;
52104;SDS011;38103;42.776;23.112;2022-11-15T07:05:13;280.42;;;31.15;;
52104;SDS011;38103;42.776;23.112;2022-11-15T07:07:39;159.27;;;28.05;;
52104;SDS011;38103;42.776;23.112;2022-11-15T07:10:05;266.70;;;28.75;;
52104;SDS011;38103;42.776;23.112;2022-11-15T07:12:31;253.77;;;32.53;;
52104;SDS011;38103;42.776;23.112;2022-11-15T07:14:57;264.33;;;32.85;;
52104;SDS011;38103;42.776;23.112;2022-11-15T07:17:22;180.00;;;33.83;;
52104;SDS011;38103;42.776;23.112;2022-11-15T07:19:47;267.92;;;30.92;;
52104;SDS011;38103;42.776;23.112;2022-11-15T07:22:13;219.32;;;30.83;;
52104;SDS011;38103;42.776;23.112;2022-11-15T07:24:38;265.50;;;32.83;;
52104;SDS011;38103;42.776;23.112;2022-11-15T07:27:03;231.20;;;30.15;;
52104;SDS011;38103;42.776;23.112;2022-11-15T07:29:29;242.98;;;30.55;;
52104;SDS011;38103;42.776;23.112;2022-11-15T07:31:54;184.05;;;28.92;;
52104;SDS011;38103;42.776;23.112;2022-11-15T07:34:20;193.38;;;28.92;;
52104;SDS011;38103;42.776;23.112;2022-11-15T07:36:45;315.88;;;34.50;;
52104;SDS011;38103;42.776;23.112;2022-11-15T07:39:10;307.05;;;32.97;;
52104;SDS011;38103;42.776;23.112;2022-11-15T07:41:37;307.15;;;30.60;;
52104;SDS011;38103;42.776;23.112;2022-11-15T07:44:03;236.20;;;32.55;;
52104;SDS011;38103;42.776;23.112;2022-11-15T07:46:29;233.43;;;36.63;;
52104;SDS011;38103;42.776;23.112;2022-11-15T07:48:54;264.50;;;41.75;;
52104;SDS011;38103;42.776;23.112;2022-11-15T07:51:20;325.13;;;40.40;;
52104;SDS011;38103;42.776;23.112;2022-11-15T07:53:45;284.60;;;36.33;;
52104;SDS011;38103;42.776;23.112;2022-11-15T07:56:11;377.85;;;40.72;;
52104;SDS011;38103;42.776;23.112;2022-11-15T07:58:37;346.55;;;42.22;;
52104;SDS011;38103;42.776;23.112;2022-11-15T08:01:03;242.40;;;38.75;;
52104;SDS011;38103;42.776;23.112;2022-11-15T08:03:30;291.27;;;40.65;;
52104;SDS011;38103;42.776;23.112;2022-11-15T08:05:55;446.77;;;42.60;;
52104;SDS011;38103;42.776;23.112;2022-11-15T08:08:20;259.30;;;36.13;;
52104;SDS011;38103;42.776;23.112;2022-11-15T08:10:46;404.40;;;40.20;;
52104;SDS011;38103;42.776;23.112;2022-11-15T08:13:11;332.58;;;36.13;;
52104;SDS011;38103;42.776;23.112;2022-11-15T08:15:37;252.75;;;38.72;;
52104;SDS011;38103;42.776;23.112;2022-11-15T08:18:04;399.65;;;43.25;;
52104;SDS011;38103;42.776;23.112;2022-11-15T08:20:33;386.55;;;44.45;;
52104;SDS011;38103;42.776;23.112;2022-11-15T08:22:59;263.17;;;42.92;;
52104;SDS011;38103;42.776;23.112;2022-11-15T08:25:27;464.75;;;48.38;;
52104;SDS011;38103;42.776;23.112;2022-11-15T08:27:54;249.45;;;38.88;;
52104;SDS011;38103;42.776;23.112;2022-11-15T08:30:21;496.58;;;51.03;;
52104;SDS011;38103;42.776;23.112;2022-11-15T08:32:47;196.20;;;38.85;;
52104;SDS011;38103;42.776;23.112;2022-11-15T08:35:14;433.77;;;44.58;;
52104;SDS011;38103;42.776;23.112;2022-11-15T08:37:39;459.48;;;52.30;;
52104;SDS011;38103;42.776;23.112;2022-11-15T08:40:05;328.58;;;45.50;;
52104;SDS011;38103;42.776;23.112;2022-11-15T08:42:31;466.15;;;49.38;;
52104;SDS011;38103;42.776;23.112;2022-11-15T08:44:57;350.65;;;43.92;;
52104;SDS011;38103;42.776;23.112;2022-11-15T08:47:22;524.83;;;45.33;;
52104;SDS011;38103;42.776;23.112;2022-11-15T08:49:48;196.43;;;42.58;;
52104;SDS011;38103;42.776;23.112;2022-11-15T08:52:14;475.88;;;45.67;;
52104;SDS011;38103;42.776;23.112;2022-11-15T08:54:39;588.63;;;52.97;;
52104;SDS011;38103;42.776;23.112;2022-11-15T08:57:05;629.42;;;48.40;;
52104;SDS011;38103;42.776;23.112;2022-11-15T08:59:31;521.45;;;43.00;;
52104;SDS011;38103;42.776;23.112;2022-11-15T09:01:57;419.70;;;46.47;;
52104;SDS011;38103;42.776;23.112;2022-11-15T09:04:22;497.52;;;53.88;;
52104;SDS011;38103;42.776;23.112;2022-11-15T09:06:47;495.17;;;43.60;;
52104;SDS011;38103;42.776;23.112;2022-11-15T09:09:13;553.78;;;48.10;;
52104;SDS011;38103;42.776;23.112;2022-11-15T09:11:39;454.80;;;47.58;;
52104;SDS011;38103;42.776;23.112;2022-11-15T09:14:04;374.45;;;45.85;;
52104;SDS011;38103;42.776;23.112;2022-11-15T09:16:30;420.15;;;45.92;;
52104;SDS011;38103;42.776;23.112;2022-11-15T09:18:56;385.58;;;50.28;;
52104;SDS011;38103;42.776;23.112;2022-11-15T09:21:21;586.47;;;59.92;;
52104;SDS011;38103;42.776;23.112;2022-11-15T09:23:49;451.38;;;49.38;;
52104;SDS011;38103;42.776;23.112;2022-11-15T09:26:15;506.65;;;53.10;;
52104;SDS011;38103;42.776;23.112;2022-11-15T09:28:41;568.17;;;59.75;;
52104;SDS011;38103;42.776;23.112;2022-11-15T09:31:07;283.27;;;51.00;;
52104;SDS011;38103;42.776;23.112;2022-11-15T09:33:33;407.17;;;60.53;;
52104;SDS011;38103;42.776;23.112;2022-11-15T09:36:07;313.75;;;48.05;;
52104;SDS011;38103;42.776;23.112;2022-11-15T09:38:34;370.42;;;46.58;;
52104;SDS011;38103;42.776;23.112;2022-11-15T09:43:44;565.85;;;59.53;;
52104;SDS011;38103;42.776;23.112;2022-11-15T09:46:19;359.55;;;50.90;;
52104;SDS011;38103;42.776;23.112;2022-11-15T10:03:55;570.45;;;51.88;;
52104;SDS011;38103;42.776;23.112;2022-11-15T10:06:25;362.48;;;52.08;;
52104;SDS011;38103;42.776;23.112;2022-11-15T10:11:27;394.08;;;51.05;;
52104;SDS011;38103;42.776;23.112;2022-11-15T10:13:59;233.38;;;47.05;;
52104;SDS011;38103;42.776;23.112;2022-11-15T10:16:41;208.65;;;50.35;;
52104;SDS011;38103;42.776;23.112;2022-11-15T10:27:33;247.38;;;53.47;;
52104;SDS011;38103;42.776;23.112;2022-11-15T10:29:59;293.02;;;52.60;;
52104;SDS011;38103;42.776;23.112;2022-11-15T10:32:24;440.77;;;55.53;;
52104;SDS011;38103;42.776;23.112;2022-11-15T10:34:50;335.25;;;54.63;;
52104;SDS011;38103;42.776;23.112;2022-11-15T10:37:37;305.15;;;53.35;;
52104;SDS011;38103;42.776;23.112;2022-11-15T10:40:02;243.65;;;59.20;;
52104;SDS011;38103;42.776;23.112;2022-11-15T10:42:29;245.48;;;58.10;;
52104;SDS011;38103;42.776;23.112;2022-11-15T10:44:55;218.55;;;53.05;;
52104;SDS011;38103;42.776;23.112;2022-11-15T10:49:53;209.23;;;49.25;;
52104;SDS011;38103;42.776;23.112;2022-11-15T10:52:23;227.80;;;53.35;;
52104;SDS011;38103;42.776;23.112;2022-11-15T10:55:00;192.00;;;49.65;;
52104;SDS011;38103;42.776;23.112;2022-11-15T10:57:31;216.07;;;52.10;;
52104;SDS011;38103;42.776;23.112;2022-11-15T11:00:03;229.77;;;55.70;;
52104;SDS011;38103;42.776;23.112;2022-11-15T11:10:30;256.27;;;54.10;;
52104;SDS011;38103;42.776;23.112;2022-11-15T11:13:04;167.50;;;48.78;;
52104;SDS011;38103;42.776;23.112;2022-11-15T11:15:46;162.23;;;51.38;;
52104;SDS011;38103;42.776;23.112;2022-11-15T11:18:25;158.40;;;48.38;;
52104;SDS011;38103;42.776;23.112;2022-11-15T11:21:04;180.88;;;51.40;;
52104;SDS011;38103;42.776;23.112;2022-11-15T11:26:12;166.52;;;51.55;;
52104;SDS011;38103;42.776;23.112;2022-11-15T11:31:41;158.43;;;50.97;;
52104;SDS011;38103;42.776;23.112;2022-11-15T11:34:29;142.68;;;48.42;;
52104;SDS011;38103;42.776;23.112;2022-11-15T11:51:43;112.90;;;47.33;;
52104;SDS011;38103;42.776;23.112;2022-11-15T11:54:16;118.25;;;50.00;;
52104;SDS011;38103;42.776;23.112;2022-11-15T11:56:47;109.63;;;45.80;;
52104;SDS011;38103;42.776;23.112;2022-11-15T11:59:19;112.32;;;46.05;;
52104;SDS011;38103;42.776;23.112;2022-11-15T12:01:50;111.25;;;45.25;;
52104;SDS011;38103;42.776;23.112;2022-11-15T12:06:52;107.88;;;48.47;;
52104;SDS011;38103;42.776;23.112;2022-11-15T12:10:11;122.88;;;48.53;;
52104;SDS011;38103;42.776;23.112;2022-11-15T12:12:38;114.43;;;46.17;;
52104;SDS011;38103;42.776;23.112;2022-11-15T12:17:34;113.18;;;47.10;;
52104;SDS011;38103;42.776;23.112;2022-11-15T12:20:06;113.55;;;46.45;;
52104;SDS011;38103;42.776;23.112;2022-11-15T12:22:41;121.93;;;48.78;;
52104;SDS011;38103;42.776;23.112;2022-11-15T12:27:46;106.78;;;45.80;;
52104;SDS011;38103;42.776;23.112;2022-11-15T12:30:17;114.65;;;48.67;;
52104;SDS011;38103;42.776;23.112;2022-11-15T12:32:52;110.85;;;47.67;;
52104;SDS011;38103;42.776;23.112;2022-11-15T12:35:25;108.05;;;48.63;;
52104;SDS011;38103;42.776;23.112;2022-11-15T12:37:55;118.18;;;48.65;;
52104;SDS011;38103;42.776;23.112;2022-11-15T12:45:32;122.10;;;52.30;;
52104;SDS011;38103;42.776;23.112;2022-11-15T12:48:47;124.38;;;53.97;;
52104;SDS011;38103;42.776;23.112;2022-11-15T12:51:01;118.60;;;51.58;;
52104;SDS011;38103;42.776;23.112;2022-11-15T12:58:44;130.20;;;56.95;;
52104;SDS011;38103;42.776;23.112;2022-11-15T13:12:00;148.32;;;61.65;;
52104;SDS011;38103;42.776;23.112;2022-11-15T13:17:42;145.27;;;58.50;;
52104;SDS011;38103;42.776;23.112;2022-11-15T13:28:01;159.35;;;66.45;;
52104;SDS011;38103;42.776;23.112;2022-11-15T13:30:36;165.40;;;65.90;;
52104;SDS011;38103;42.776;23.112;2022-11-15T13:33:09;148.75;;;62.53;;
52104;SDS011;38103;42.776;23.112;2022-11-15T13:35:40;145.75;;;62.17;;
52104;SDS011;38103;42.776;23.112;2022-11-15T13:38:11;147.52;;;61.38;;
52104;SDS011;38103;42.776;23.112;2022-11-15T13:40:55;151.60;;;62.55;;
52104;SDS011;38103;42.776;23.112;2022-11-15T13:46:06;149.00;;;60.15;;
52104;SDS011;38103;42.776;23.112;2022-11-15T13:48:34;152.27;;;62.85;;
52104;SDS011;38103;42.776;23.112;2022-11-15T13:51:03;146.23;;;62.50;;
52104;SDS011;38103;42.776;23.112;2022-11-15T13:53:33;144.38;;;61.42;;
52104;SDS011;38103;42.776;23.112;2022-11-15T13:56:03;148.15;;;59.28;;
52104;SDS011;38103;42.776;23.112;2022-11-15T13:58:30;148.63;;;59.58;;
52104;SDS011;38103;42.776;23.112;2022-11-15T14:00:59;145.32;;;62.25;;
52104;SDS011;38103;42.776;23.112;2022-11-15T14:03:27;142.90;;;60.88;;
52104;SDS011;38103;42.776;23.112;2022-11-15T14:08:41;151.52;;;61.30;;
52104;SDS011;38103;42.776;23.112;2022-11-15T14:11:21;144.77;;;63.10;;
52104;SDS011;38103;42.776;23.112;2022-11-15T14:16:48;147.60;;;66.95;;
52104;SDS011;38103;42.776;23.112;2022-11-15T14:24:45;129.18;;;58.42;;
52104;SDS011;38103;42.776;23.112;2022-11-15T14:27:17;122.70;;;55.22;;
52104;SDS011;38103;42.776;23.112;2022-11-15T14:29:46;126.43;;;54.33;;
52104;SDS011;38103;42.776;23.112;2022-11-15T14:32:14;119.45;;;54.10;;
52104;SDS011;38103;42.776;23.112;2022-11-15T14:34:42;123.28;;;54.65;;
52104;SDS011;38103;42.776;23.112;2022-11-15T14:37:27;123.13;;;52.42;;
52104;SDS011;38103;42.776;23.112;2022-11-15T14:39:54;114.90;;;51.47;;
52104;SDS011;38103;42.776;23.112;2022-11-15T14:42:20;110.38;;;54.50;;
52104;SDS011;38103;42.776;23.112;2022-11-15T14:44:47;119.32;;;54.83;;
52104;SDS011;38103;42.776;23.112;2022-11-15T14:47:12;121.88;;;53.85;;
52104;SDS011;38103;42.776;23.112;2022-11-15T14:49:38;118.38;;;52.40;;
52104;SDS011;38103;42.776;23.112;2022-11-15T14:52:07;120.93;;;54.80;;
52104;SDS011;38103;42.776;23.112;2022-11-15T14:54:41;115.55;;;53.33;;
52104;SDS011;38103;42.776;23.112;2022-11-15T14:57:06;118.43;;;54.60;;
52104;SDS011;38103;42.776;23.112;2022-11-15T14:59:32;119.65;;;53.88;;
52104;SDS011;38103;42.776;23.112;2022-11-15T15:01:57;136.57;;;55.97;;
52104;SDS011;38103;42.776;23.112;2022-11-15T15:04:24;139.07;;;60.22;;
52104;SDS011;38103;42.776;23.112;2022-11-15T15:06:49;183.55;;;71.70;;
52104;SDS011;38103;42.776;23.112;2022-11-15T15:09:14;176.00;;;71.82;;
52104;SDS011;38103;42.776;23.112;2022-11-15T15:11:40;167.57;;;67.28;;
52104;SDS011;38103;42.776;23.112;2022-11-15T15:14:05;148.93;;;61.05;;
52104;SDS011;38103;42.776;23.112;2022-11-15T15:16:30;122.50;;;56.65;;
52104;SDS011;38103;42.776;23.112;2022-11-15T15:18:56;130.30;;;58.17;;
52104;SDS011;38103;42.776;23.112;2022-11-15T15:21:27;131.98;;;57.83;;
52104;SDS011;38103;42.776;23.112;2022-11-15T15:23:53;122.82;;;53.80;;
52104;SDS011;38103;42.776;23.112;2022-11-15T15:26:19;132.85;;;57.13;;
52104;SDS011;38103;42.776;23.112;2022-11-15T15:28:45;125.30;;;57.45;;
52104;SDS011;38103;42.776;23.112;2022-11-15T15:31:10;123.32;;;54.53;;
52104;SDS011;38103;42.776;23.112;2022-11-15T15:33:36;117.10;;;53.90;;
52104;SDS011;38103;42.776;23.112;2022-11-15T15:36:02;122.75;;;55.90;;
52104;SDS011;38103;42.776;23.112;2022-11-15T15:38:28;131.65;;;55.83;;
52104;SDS011;38103;42.776;23.112;2022-11-15T15:40:54;129.68;;;57.05;;
52104;SDS011;38103;42.776;23.112;2022-11-15T15:43:20;127.45;;;57.45;;
52104;SDS011;38103;42.776;23.112;2022-11-15T15:45:47;129.85;;;56.45;;
52104;SDS011;38103;42.776;23.112;2022-11-15T15:48:15;137.95;;;57.30;;
52104;SDS011;38103;42.776;23.112;2022-11-15T15:50:42;137.52;;;55.58;;
52104;SDS011;38103;42.776;23.112;2022-11-15T15:53:08;124.05;;;54.17;;
52104;SDS011;38103;42.776;23.112;2022-11-15T15:55:38;126.93;;;55.85;;
52104;SDS011;38103;42.776;23.112;2022-11-15T15:58:04;125.32;;;56.22;;
52104;SDS011;38103;42.776;23.112;2022-11-15T16:00:30;144.35;;;63.65;;
52104;SDS011;38103;42.776;23.112;2022-11-15T16:02:58;137.10;;;59.42;;
52104;SDS011;38103;42.776;23.112;2022-11-15T16:05:23;146.65;;;64.80;;
52104;SDS011;38103;42.776;23.112;2022-11-15T16:07:49;142.98;;;62.63;;
52104;SDS011;38103;42.776;23.112;2022-11-15T16:10:17;129.30;;;59.45;;
52104;SDS011;38103;42.776;23.112;2022-11-15T16:12:44;128.10;;;55.22;;
52104;SDS011;38103;42.776;23.112;2022-11-15T16:15:10;119.70;;;55.50;;
52104;SDS011;38103;42.776;23.112;2022-11-15T16:17:37;118.50;;;52.42;;
52104;SDS011;38103;42.776;23.112;2022-11-15T16:20:06;144.68;;;55.90;;
52104;SDS011;38103;42.776;23.112;2022-11-15T16:22:32;139.65;;;54.58;;
52104;SDS011;38103;42.776;23.112;2022-11-15T16:24:57;143.65;;;57.75;;
52104;SDS011;38103;42.776;23.112;2022-11-15T16:27:22;146.73;;;58.28;;
52104;SDS011;38103;42.776;23.112;2022-11-15T16:29:48;144.77;;;59.88;;
52104;SDS011;38103;42.776;23.112;2022-11-15T16:32:14;162.38;;;63.85;;
52104;SDS011;38103;42.776;23.112;2022-11-15T16:34:40;139.07;;;55.42;;
52104;SDS011;38103;42.776;23.112;2022-11-15T16:37:08;122.50;;;53.13;;
52104;SDS011;38103;42.776;23.112;2022-11-15T16:39:47;132.77;;;56.50;;